Time;durP1;ratioP1;P1;durP2;ratioP2;P2;SDS_P1;SDS_P2;PMS_P1;PMS_P2;Temp;Humidity;BMP_temperature;BMP_pressure;BME280_temperature;BME280_humidity;BME280_pressure;Samples;Min_cycle;Max_cycle;Signal;HPM_P1;HPM_P2
2023/04/26 00:01:57;;;;;;;8.30;3.13;;;;;;;;;;5093252;28;20420;-83
2023/04/26 00:04:24;;;;;;;10.90;3.50;;;;;;;;;;5076378;27;20501;-82
2023/04/26 00:06:50;;;;;;;9.63;3.30;;;;;;;;;;5086267;28;20467;-83
2023/04/26 00:09:18;;;;;;;13.13;3.30;;;;;;;;;;5111296;28;20969;-83
2023/04/26 00:11:44;;;;;;;11.13;3.03;;;;;;;;;;5089314;28;20414;-81
2023/04/26 00:14:10;;;;;;;9.65;3.58;;;;;;;;;;5082575;28;20491;-83
2023/04/26 00:16:36;;;;;;;13.10;3.80;;;;;;;;;;5112349;28;20394;-83
2023/04/26 00:19:03;;;;;;;9.60;3.42;;;;;;;;;;5092876;28;20412;-83
2023/04/26 00:21:29;;;;;;;8.52;3.35;;;;;;;;;;5081786;28;20502;-83
2023/04/26 00:23:55;;;;;;;9.88;3.30;;;;;;;;;;5069885;28;20421;-83
2023/04/26 00:26:21;;;;;;;12.55;3.60;;;;;;;;;;5091010;28;20425;-83
2023/04/26 00:28:47;;;;;;;10.63;3.35;;;;;;;;;;5077097;28;20426;-80
2023/04/26 00:31:17;;;;;;;12.27;3.60;;;;;;;;;;5057794;28;20424;-79
2023/04/26 00:33:43;;;;;;;9.75;3.30;;;;;;;;;;5078552;28;20432;-79
2023/04/26 00:36:09;;;;;;;9.55;3.50;;;;;;;;;;5096687;28;20419;-79
2023/04/26 00:38:36;;;;;;;9.43;3.10;;;;;;;;;;5079813;28;20506;-80
2023/04/26 00:41:02;;;;;;;10.82;3.65;;;;;;;;;;5079314;28;20416;-81
2023/04/26 00:43:28;;;;;;;9.30;3.25;;;;;;;;;;5061942;27;20439;-81
2023/04/26 00:45:54;;;;;;;10.65;3.63;;;;;;;;;;5082074;27;20430;-81
2023/04/26 00:48:21;;;;;;;10.13;3.70;;;;;;;;;;5075166;28;20456;-81
2023/04/26 00:50:47;;;;;;;10.88;3.50;;;;;;;;;;5060314;28;20421;-80
2023/04/26 00:53:14;;;;;;;11.52;3.60;;;;;;;;;;5080782;27;20434;-81
2023/04/26 00:55:40;;;;;;;10.57;3.33;;;;;;;;;;5099149;27;21215;-81
2023/04/26 00:58:06;;;;;;;11.50;3.10;;;;;;;;;;5080773;28;20418;-81
2023/04/26 01:00:32;;;;;;;10.80;3.28;;;;;;;;;;5093897;28;20461;-81
2023/04/26 01:02:59;;;;;;;12.13;3.78;;;;;;;;;;5079056;28;20443;-81
2023/04/26 01:05:25;;;;;;;9.98;3.50;;;;;;;;;;5062308;28;20434;-82
2023/04/26 01:07:51;;;;;;;9.93;3.50;;;;;;;;;;5092265;27;20422;-81
2023/04/26 01:10:18;;;;;;;10.60;3.25;;;;;;;;;;5083837;28;20479;-81
2023/04/26 01:12:44;;;;;;;8.70;3.17;;;;;;;;;;5096138;28;20412;-81
2023/04/26 01:15:11;;;;;;;8.63;3.23;;;;;;;;;;5094285;27;20414;-82
2023/04/26 01:17:37;;;;;;;9.35;3.55;;;;;;;;;;5082418;27;20419;-82
2023/04/26 01:20:04;;;;;;;7.80;3.20;;;;;;;;;;5079176;28;20426;-79
2023/04/26 01:22:33;;;;;;;10.82;3.63;;;;;;;;;;5060234;27;20847;-80
2023/04/26 01:25:01;;;;;;;8.73;3.05;;;;;;;;;;5072262;27;20827;-81
2023/04/26 01:27:27;;;;;;;7.70;3.03;;;;;;;;;;5085734;27;20407;-82
2023/04/26 01:29:53;;;;;;;8.70;3.03;;;;;;;;;;5088601;28;20408;-81
2023/04/26 01:32:19;;;;;;;11.23;3.17;;;;;;;;;;5059295;28;20517;-81
2023/04/26 01:34:45;;;;;;;7.45;2.78;;;;;;;;;;5079717;27;20419;-81
2023/04/26 01:37:11;;;;;;;8.27;3.10;;;;;;;;;;5067140;27;20981;-81
2023/04/26 01:39:38;;;;;;;7.50;2.70;;;;;;;;;;5098021;27;20754;-81
2023/04/26 01:42:04;;;;;;;9.68;2.80;;;;;;;;;;5076935;27;20469;-81
2023/04/26 01:44:30;;;;;;;8.90;3.03;;;;;;;;;;5081357;28;20413;-80
2023/04/26 01:46:56;;;;;;;8.13;3.05;;;;;;;;;;5064537;27;20445;-81
2023/04/26 01:49:22;;;;;;;7.43;2.97;;;;;;;;;;5083341;27;20402;-80
2023/04/26 01:51:49;;;;;;;10.13;3.03;;;;;;;;;;5081055;28;20431;-80
2023/04/26 01:54:15;;;;;;;9.20;2.80;;;;;;;;;;5058876;28;20441;-81
2023/04/26 01:56:41;;;;;;;9.48;3.10;;;;;;;;;;5093457;27;20926;-81
2023/04/26 01:59:07;;;;;;;9.80;3.10;;;;;;;;;;5077335;27;20423;-81
2023/04/26 02:01:33;;;;;;;8.55;3.00;;;;;;;;;;5097770;28;20416;-80
2023/04/26 02:03:59;;;;;;;8.63;2.63;;;;;;;;;;5096144;28;20465;-81
2023/04/26 02:06:25;;;;;;;8.02;2.90;;;;;;;;;;5100603;27;20435;-80
2023/04/26 02:08:52;;;;;;;8.70;2.97;;;;;;;;;;5063451;28;20425;-81
2023/04/26 02:11:18;;;;;;;7.95;2.85;;;;;;;;;;5077375;28;20914;-80
2023/04/26 02:13:44;;;;;;;9.30;3.05;;;;;;;;;;5083526;27;20824;-78
2023/04/26 02:16:10;;;;;;;10.85;3.00;;;;;;;;;;5112035;27;20519;-80
2023/04/26 02:18:36;;;;;;;7.60;3.20;;;;;;;;;;5082706;27;20398;-81
2023/04/26 02:21:02;;;;;;;9.05;3.10;;;;;;;;;;5067980;28;20454;-81
2023/04/26 02:23:28;;;;;;;10.07;3.10;;;;;;;;;;5091569;27;20966;-81
2023/04/26 02:25:54;;;;;;;6.55;2.67;;;;;;;;;;5068805;28;20416;-82
2023/04/26 02:28:21;;;;;;;7.20;3.00;;;;;;;;;;5096108;28;20400;-81
2023/04/26 02:30:47;;;;;;;8.50;3.25;;;;;;;;;;5077545;27;20393;-81
2023/04/26 02:33:13;;;;;;;5.40;3.07;;;;;;;;;;5073561;28;20416;-81
2023/04/26 02:35:39;;;;;;;8.98;3.00;;;;;;;;;;5059353;28;20418;-81
2023/04/26 02:38:06;;;;;;;9.40;2.75;;;;;;;;;;5078049;28;20408;-80
2023/04/26 02:40:32;;;;;;;10.40;3.13;;;;;;;;;;5077690;28;20412;-80
2023/04/26 02:42:59;;;;;;;7.90;2.60;;;;;;;;;;5074687;28;20414;-80
2023/04/26 02:45:25;;;;;;;9.45;3.15;;;;;;;;;;5084618;28;20412;-81
2023/04/26 02:47:51;;;;;;;8.20;3.00;;;;;;;;;;5097348;27;20929;-81
2023/04/26 02:50:17;;;;;;;10.05;3.13;;;;;;;;;;5097413;27;20390;-81
2023/04/26 02:52:43;;;;;;;7.22;2.65;;;;;;;;;;5053199;28;20429;-81
2023/04/26 02:55:09;;;;;;;8.82;3.03;;;;;;;;;;5094440;28;20426;-81
2023/04/26 02:57:35;;;;;;;8.38;2.97;;;;;;;;;;5080342;28;20876;-81
2023/04/26 03:00:04;;;;;;;9.68;3.35;;;;;;;;;;5088481;27;20477;-81
2023/04/26 03:02:31;;;;;;;7.97;3.10;;;;;;;;;;5072671;28;20448;-81
2023/04/26 03:04:57;;;;;;;9.43;2.90;;;;;;;;;;5094300;28;20422;-81
2023/04/26 03:07:23;;;;;;;8.73;3.20;;;;;;;;;;5067603;27;20407;-80
2023/04/26 03:09:49;;;;;;;8.73;3.25;;;;;;;;;;5111726;28;20431;-81
2023/04/26 03:12:15;;;;;;;8.52;3.35;;;;;;;;;;5055985;28;20412;-82
2023/04/26 03:14:41;;;;;;;8.73;3.25;;;;;;;;;;5064093;28;20420;-82
2023/04/26 03:17:07;;;;;;;8.80;3.40;;;;;;;;;;5077732;28;20441;-80
2023/04/26 03:19:33;;;;;;;7.75;3.60;;;;;;;;;;5077721;28;20401;-80
2023/04/26 03:22:00;;;;;;;9.73;3.37;;;;;;;;;;5078605;28;21535;-79
2023/04/26 03:24:26;;;;;;;10.18;3.20;;;;;;;;;;5093747;27;20544;-81
2023/04/26 03:26:52;;;;;;;12.23;3.08;;;;;;;;;;5083243;27;20426;-81
2023/04/26 03:29:18;;;;;;;9.20;3.55;;;;;;;;;;5082028;28;20396;-81
2023/04/26 03:31:44;;;;;;;8.80;3.15;;;;;;;;;;5078417;28;20410;-80
2023/04/26 03:34:10;;;;;;;9.55;3.22;;;;;;;;;;5073009;28;20436;-81
2023/04/26 03:36:37;;;;;;;9.88;3.25;;;;;;;;;;5053629;28;20401;-81
2023/04/26 03:39:04;;;;;;;10.83;3.13;;;;;;;;;;5093064;27;20451;-81
2023/04/26 03:41:32;;;;;;;8.93;3.08;;;;;;;;;;5077105;28;20503;-81
2023/04/26 03:43:58;;;;;;;11.57;3.20;;;;;;;;;;5092260;27;20420;-81
2023/04/26 03:46:24;;;;;;;8.88;3.33;;;;;;;;;;5085403;28;20421;-81
2023/04/26 03:48:50;;;;;;;9.05;3.17;;;;;;;;;;5077289;28;20417;-80
2023/04/26 03:51:16;;;;;;;8.07;3.30;;;;;;;;;;5080106;28;20416;-80
2023/04/26 03:53:42;;;;;;;9.25;3.22;;;;;;;;;;5061898;27;20430;-79
2023/04/26 03:56:08;;;;;;;8.90;3.37;;;;;;;;;;5079145;28;20495;-79
2023/04/26 03:58:35;;;;;;;8.70;3.20;;;;;;;;;;5075083;27;20411;-77
2023/04/26 04:01:01;;;;;;;10.27;3.10;;;;;;;;;;5077516;28;20427;-79
2023/04/26 04:03:29;;;;;;;10.48;3.35;;;;;;;;;;5096230;28;20431;-78
2023/04/26 04:05:55;;;;;;;10.17;3.40;;;;;;;;;;5100644;28;20886;-79
2023/04/26 04:08:21;;;;;;;8.98;3.35;;;;;;;;;;5070466;28;20410;-79
2023/04/26 04:10:47;;;;;;;9.75;3.33;;;;;;;;;;5077678;28;20463;-80
2023/04/26 04:13:13;;;;;;;9.65;3.38;;;;;;;;;;5083528;28;20499;-80
2023/04/26 04:15:39;;;;;;;8.68;3.60;;;;;;;;;;5085520;28;20412;-80
2023/04/26 04:18:05;;;;;;;8.82;3.17;;;;;;;;;;5084136;28;20410;-81
2023/04/26 04:20:31;;;;;;;9.57;3.63;;;;;;;;;;5069558;28;20416;-79
2023/04/26 04:22:57;;;;;;;9.30;3.45;;;;;;;;;;5065684;28;20425;-80
2023/04/26 04:25:24;;;;;;;8.52;3.20;;;;;;;;;;5077539;28;20429;-80
2023/04/26 04:27:50;;;;;;;8.45;3.58;;;;;;;;;;5078355;28;20412;-80
2023/04/26 04:30:16;;;;;;;8.75;3.50;;;;;;;;;;5061579;28;20429;-80
2023/04/26 04:32:43;;;;;;;12.32;3.75;;;;;;;;;;5091052;28;20440;-80
2023/04/26 04:35:10;;;;;;;6.47;3.10;;;;;;;;;;5087745;28;20499;-80
2023/04/26 04:37:36;;;;;;;13.30;3.83;;;;;;;;;;5079686;28;20888;-80
2023/04/26 04:40:03;;;;;;;9.25;3.50;;;;;;;;;;5079965;28;20887;-79
2023/04/26 04:42:29;;;;;;;8.38;3.58;;;;;;;;;;5097903;28;20420;-80
2023/04/26 04:44:56;;;;;;;8.83;3.40;;;;;;;;;;5098571;28;20508;-78
2023/04/26 04:47:23;;;;;;;9.40;3.58;;;;;;;;;;5093239;28;20389;-79
2023/04/26 04:49:49;;;;;;;8.30;3.30;;;;;;;;;;5076589;28;20412;-79
2023/04/26 04:52:16;;;;;;;9.13;3.60;;;;;;;;;;5069907;28;20443;-80
2023/04/26 04:54:42;;;;;;;8.20;3.47;;;;;;;;;;5086128;28;20933;-80
2023/04/26 04:57:08;;;;;;;7.32;3.08;;;;;;;;;;5062245;28;20417;-80
2023/04/26 04:59:34;;;;;;;9.93;3.88;;;;;;;;;;5073974;28;20415;-81
2023/04/26 05:02:00;;;;;;;7.88;3.63;;;;;;;;;;5065148;28;20453;-80
2023/04/26 05:04:26;;;;;;;12.32;4.05;;;;;;;;;;5091970;28;20919;-80
2023/04/26 05:06:52;;;;;;;11.02;3.83;;;;;;;;;;5090595;28;20468;-83
2023/04/26 05:09:18;;;;;;;9.50;3.90;;;;;;;;;;5096531;28;20470;-81
2023/04/26 05:11:44;;;;;;;10.13;3.60;;;;;;;;;;5069625;28;20453;-84
2023/04/26 05:14:11;;;;;;;9.82;3.92;;;;;;;;;;5094955;28;20451;-84
2023/04/26 05:16:37;;;;;;;8.48;3.70;;;;;;;;;;5078056;28;20493;-85
2023/04/26 05:19:03;;;;;;;13.65;3.80;;;;;;;;;;5092726;28;20735;-84
2023/04/26 05:21:30;;;;;;;10.70;3.83;;;;;;;;;;5091750;28;20503;-83
2023/04/26 05:23:56;;;;;;;12.90;5.97;;;;;;;;;;5098976;28;20408;-83
2023/04/26 05:26:22;;;;;;;9.18;4.28;;;;;;;;;;5083908;28;20408;-83
2023/04/26 05:28:48;;;;;;;9.40;3.70;;;;;;;;;;5097913;28;20420;-82
2023/04/26 05:31:14;;;;;;;8.63;3.70;;;;;;;;;;5103740;27;20953;-81
2023/04/26 05:33:40;;;;;;;11.63;3.90;;;;;;;;;;5098753;28;20414;-79
2023/04/26 05:36:08;;;;;;;12.02;3.78;;;;;;;;;;5085123;27;20497;-81
2023/04/26 05:38:35;;;;;;;11.02;3.88;;;;;;;;;;5072467;28;20416;-82
2023/04/26 05:41:01;;;;;;;8.95;3.60;;;;;;;;;;5094741;28;20460;-83
2023/04/26 05:43:27;;;;;;;8.90;3.50;;;;;;;;;;5086287;27;20409;-83
2023/04/26 05:45:54;;;;;;;12.48;3.60;;;;;;;;;;5078867;28;20418;-83
2023/04/26 05:48:23;;;;;;;8.52;3.00;;;;;;;;;;5089785;28;20905;-83
2023/04/26 05:50:50;;;;;;;8.32;3.25;;;;;;;;;;5077048;28;20406;-84
2023/04/26 05:53:16;;;;;;;12.73;3.40;;;;;;;;;;5098851;28;20531;-83
2023/04/26 05:55:42;;;;;;;7.85;3.40;;;;;;;;;;5092402;27;20418;-83
2023/04/26 05:58:09;;;;;;;8.57;3.50;;;;;;;;;;5061118;27;20476;-79
2023/04/26 06:00:36;;;;;;;10.73;3.58;;;;;;;;;;5072109;27;20427;-79
2023/04/26 06:03:02;;;;;;;8.50;3.50;;;;;;;;;;5080293;28;20419;-79
2023/04/26 06:05:28;;;;;;;10.30;3.28;;;;;;;;;;5096153;28;20413;-79
2023/04/26 06:07:54;;;;;;;8.18;3.20;;;;;;;;;;5054666;28;20901;-79
2023/04/26 06:10:21;;;;;;;8.02;3.13;;;;;;;;;;5080952;27;20418;-80
2023/04/26 06:12:47;;;;;;;9.10;3.60;;;;;;;;;;5067520;27;20412;-80
2023/04/26 06:15:14;;;;;;;13.02;3.55;;;;;;;;;;5095233;28;20416;-80
2023/04/26 06:17:41;;;;;;;10.25;3.47;;;;;;;;;;5115187;28;20385;-80
2023/04/26 06:20:10;;;;;;;9.38;3.53;;;;;;;;;;5094320;28;20415;-80
2023/04/26 06:22:37;;;;;;;7.97;3.17;;;;;;;;;;5089436;27;20953;-80
2023/04/26 06:25:04;;;;;;;7.63;3.15;;;4.80;99.90;;;;;;5099790;28;20814;-80
2023/04/26 06:27:30;;;;;;;7.13;3.20;;;;;;;;;;5077538;28;20607;-79
2023/04/26 06:29:56;;;;;;;10.45;3.85;;;;;;;;;;5073417;27;20416;-79
2023/04/26 06:32:23;;;;;;;9.98;3.63;;;;;;;;;;5070821;27;20428;-80
2023/04/26 06:34:49;;;;;;;8.82;3.72;;;;;;;;;;5065367;27;20422;-80
2023/04/26 06:37:15;;;;;;;7.43;3.40;;;;;;;;;;5083601;27;20475;-80
2023/04/26 06:39:41;;;;;;;8.40;3.50;;;;;;;;;;5095130;27;20501;-80
2023/04/26 06:42:07;;;;;;;7.47;3.22;;;;;;;;;;5060675;28;20414;-79
2023/04/26 06:44:33;;;;;;;8.07;3.30;;;;;;;;;;5072213;27;20415;-79
2023/04/26 06:46:59;;;;;;;8.23;3.40;;;;;;;;;;5069580;27;20418;-79
2023/04/26 06:49:25;;;;;;;9.80;3.63;;;;;;;;;;5066131;28;20457;-78
2023/04/26 06:51:51;;;;;;;8.98;3.22;;;;;;;;;;5077806;28;20516;-78
2023/04/26 06:54:18;;;;;;;7.80;3.08;;;;;;;;;;5093059;28;20435;-78
2023/04/26 06:56:45;;;;;;;9.30;3.30;;;;;;;;;;5068208;27;20503;-78
2023/04/26 06:59:11;;;;;;;6.82;3.47;;;;;;;;;;5091918;27;20420;-78
2023/04/26 07:01:38;;;;;;;8.23;2.97;;;;;;;;;;5062403;28;20750;-79
2023/04/26 07:04:06;;;;;;;9.48;3.10;;;;;;;;;;5090453;27;20429;-79
2023/04/26 07:06:33;;;;;;;7.00;2.70;;;;;;;;;;5070092;28;20479;-80
2023/04/26 07:08:59;;;;;;;7.47;2.75;;;;;;;;;;5099103;27;20473;-80
2023/04/26 07:11:26;;;;;;;7.50;3.13;;;;;;;;;;5097004;27;20501;-80
2023/04/26 07:13:52;;;;;;;7.85;2.72;;;;;;;;;;5095512;28;20416;-80
2023/04/26 07:16:18;;;;;;;9.57;2.70;;;;;;;;;;5077004;28;20533;-79
2023/04/26 07:18:47;;;;;;;7.03;2.65;;;;;;;;;;5079986;28;20768;-81
2023/04/26 07:21:13;;;;;;;7.88;2.88;;;;;;;;;;5070246;28;20418;-80
2023/04/26 07:23:39;;;;;;;9.57;2.83;;;;;;;;;;5070734;28;20444;-81
2023/04/26 07:26:05;;;;;;;8.80;2.70;;;;;;;;;;5098518;27;20418;-79
2023/04/26 07:28:32;;;;;;;6.67;2.70;;;;;;;;;;5081177;28;20503;-79
2023/04/26 07:30:59;;;;;;;6.88;2.95;;;7.20;99.90;;;;;;5091648;27;20416;-78
2023/04/26 07:33:25;;;;;;;8.57;2.78;;;;;;;;;;5074540;28;20477;-79
2023/04/26 07:35:54;;;;;;;8.45;2.40;;;;;;;;;;5072133;28;20425;-79
2023/04/26 07:38:20;;;;;;;8.23;2.63;;;;;;;;;;5071923;28;20911;-78
2023/04/26 07:40:46;;;;;;;8.10;2.53;;;;;;;;;;5091241;28;20442;-79
2023/04/26 07:43:14;;;;;;;7.70;2.30;;;;;;;;;;5075364;28;20868;-79
2023/04/26 07:45:40;;;;;;;9.07;2.35;;;;;;;;;;5071269;28;20499;-79
2023/04/26 07:48:06;;;;;;;6.40;2.27;;;;;;;;;;5079928;28;20416;-78
2023/04/26 07:50:32;;;;;;;6.13;2.22;;;;;;;;;;5072240;28;20416;-79
2023/04/26 07:52:58;;;;;;;7.87;2.27;;;;;;;;;;5074562;28;20442;-79
2023/04/26 07:55:25;;;;;;;6.85;2.40;;;;;;;;;;5090852;28;20420;-79
2023/04/26 07:57:51;;;;;;;6.33;2.20;;;;;;;;;;5095220;27;20423;-79
2023/04/26 08:00:17;;;;;;;6.20;2.03;;;;;;;;;;5075272;28;20408;-79
2023/04/26 08:02:45;;;;;;;6.75;2.17;;;;;;;;;;5093160;28;20468;-79
2023/04/26 08:05:12;;;;;;;6.90;2.30;;;;;;;;;;5065567;28;20426;-79
2023/04/26 08:07:38;;;;;;;6.20;2.28;;;;;;;;;;5055149;28;20507;-79
2023/04/26 08:10:05;;;;;;;7.45;2.35;;;;;;;;;;5090229;28;20421;-79
2023/04/26 08:12:32;;;;;;;7.22;2.38;;;8.80;99.90;;;;;;5081837;28;20417;-79
2023/04/26 08:15:00;;;;;;;7.85;2.33;;;;;;;;;;5050202;28;20429;-80
2023/04/26 08:17:26;;;;;;;9.73;2.55;;;;;;;;;;5086254;28;20413;-79
2023/04/26 08:19:52;;;;;;;8.52;2.58;;;;;;;;;;5075378;28;20439;-79
2023/04/26 08:22:18;;;;;;;7.10;2.40;;;;;;;;;;5062998;28;20934;-79
2023/04/26 08:24:51;;;;;;;6.38;2.20;;;;;;;;;;5060922;28;20418;-79
2023/04/26 08:27:18;;;;;;;8.70;2.60;;;;;;;;;;5070002;28;20416;-79
2023/04/26 08:29:44;;;;;;;7.45;2.30;;;;;;;;;;5070528;28;20497;-79
2023/04/26 08:32:11;;;;;;;6.28;2.08;;;;;;;;;;5078136;28;20538;-79
2023/04/26 08:34:37;;;;;;;7.93;2.15;;;;;;;;;;5056591;28;20422;-79
2023/04/26 08:37:04;;;;;;;7.88;2.03;;;;;;;;;;5085412;28;20440;-79
2023/04/26 08:39:30;;;;;;;5.78;2.30;;;;;;;;;;5094929;28;20485;-80
2023/04/26 08:41:59;;;;;;;8.38;2.60;;;;;;;;;;5075390;28;20423;-80
2023/04/26 08:44:27;;;;;;;6.25;2.22;;;;;;;;;;5075183;28;20491;-80
2023/04/26 08:47:12;;;;;;;6.97;2.40;;;;;;;;;;5073611;28;20417;-79
2023/04/26 08:49:43;;;;;;;6.72;2.60;;;;;;;;;;5089402;28;20487;-79
2023/04/26 08:52:15;;;;;;;5.85;2.22;;;;;;;;;;5075556;28;20422;-79
2023/04/26 08:54:41;;;;;;;8.27;2.50;;;;;;;;;;5073608;28;20584;-79
2023/04/26 08:57:08;;;;;;;6.35;2.60;;;;;;;;;;5083708;28;20500;-79
2023/04/26 08:59:38;;;;;;;8.10;2.70;;;;;;;;;;5078528;28;20500;-79
2023/04/26 09:02:04;;;;;;;7.80;3.10;;;;;;;;;;5071430;28;20773;-79
2023/04/26 09:04:31;;;;;;;9.45;3.15;;;;;;;;;;5076289;28;20459;-79
2023/04/26 09:07:02;;;;;;;6.65;2.90;;;6.70;99.90;;;;;;5084342;28;21318;-79
2023/04/26 09:09:32;;;;;;;9.35;3.22;;;;;;;;;;5067405;28;20416;-78
2023/04/26 09:12:00;;;;;;;9.60;3.03;;;;;;;;;;5108674;27;21033;-78
2023/04/26 09:14:26;;;;;;;10.48;3.30;;;;;;;;;;5063793;28;20427;-78
2023/04/26 09:16:53;;;;;;;11.23;2.90;;;;;;;;;;5094096;28;20448;-78
2023/04/26 09:19:39;;;;;;;9.70;3.30;;;;;;;;;;5066334;28;20989;-78
2023/04/26 09:22:06;;;;;;;9.75;3.72;;;;;;;;;;5095956;28;20444;-79
2023/04/26 09:24:49;;;;;;;9.15;2.80;;;;;;;;;;5089850;28;20425;-78
2023/04/26 09:27:15;;;;;;;9.82;2.97;;;;;;;;;;5095163;28;20408;-79
2023/04/26 09:29:57;;;;;;;9.70;3.20;;;;;;;;;;5068863;28;20421;-79
2023/04/26 09:32:24;;;;;;;11.23;3.50;;;;;;;;;;5075711;28;20734;-77
2023/04/26 09:34:50;;;;;;;7.20;2.65;;;;;;;;;;5072474;28;20907;-79
2023/04/26 09:37:16;;;;;;;8.43;2.83;;;;;;;;;;5092868;28;20540;-78
2023/04/26 09:39:43;;;;;;;7.45;2.88;;;;;;;;;;5069258;28;20505;-78
2023/04/26 09:42:12;;;;;;;8.02;2.95;;;;;;;;;;5094386;28;20950;-78
2023/04/26 09:44:38;;;;;;;7.63;3.10;;;;;;;;;;5070312;28;20452;-78
2023/04/26 09:47:05;;;;;;;8.15;2.80;;;;;;;;;;5074323;28;20427;-79
2023/04/26 09:49:52;;;;;;;8.45;2.88;;;;;;;;;;5091259;28;20416;-79
2023/04/26 09:52:18;;;;;;;8.18;2.58;;;;;;;;;;5070693;28;20425;-78
2023/04/26 09:54:50;;;;;;;8.70;2.75;;;;;;;;;;5070791;28;20452;-78
2023/04/26 09:57:18;;;;;;;9.87;2.97;;;;;;;;;;5093450;28;20456;-79
2023/04/26 09:59:44;;;;;;;9.70;2.77;;;;;;;;;;5072441;28;20421;-78
2023/04/26 10:02:13;;;;;;;7.32;2.50;;;;;;;;;;5079278;28;20421;-79
2023/04/26 10:04:41;;;;;;;7.63;2.90;;;;;;;;;;5094095;28;20820;-79
2023/04/26 10:07:07;;;;;;;9.90;3.13;;;;;;;;;;5068683;28;20476;-78
2023/04/26 10:09:33;;;;;;;7.25;2.78;;;;;;;;;;5054507;28;20411;-78
2023/04/26 10:11:59;;;;;;;7.35;2.58;;;;;;;;;;5070221;28;20971;-78
2023/04/26 10:14:26;;;;;;;10.73;2.78;;;;;;;;;;5073670;28;20429;-78
2023/04/26 10:16:54;;;;;;;6.97;2.67;;;;;;;;;;5073591;28;20414;-79
2023/04/26 10:19:21;;;;;;;6.07;2.57;;;9.10;99.90;;;;;;5069812;28;20545;-78
2023/04/26 10:21:48;;;;;;;6.28;2.40;;;;;;;;;;5083998;28;20414;-77
2023/04/26 10:24:14;;;;;;;6.30;2.15;;;;;;;;;;5097603;28;20455;-78
2023/04/26 10:26:52;;;;;;;5.95;2.10;;;;;;;;;;5053304;28;20434;-79
2023/04/26 10:29:21;;;;;;;8.70;2.50;;;;;;;;;;5082085;28;20430;-78
2023/04/26 10:32:05;;;;;;;7.63;2.67;;;;;;;;;;5072980;28;20468;-78
2023/04/26 10:34:33;;;;;;;9.13;2.97;;;9.60;99.90;;;;;;5095527;28;20419;-79
2023/04/26 10:37:10;;;;;;;7.68;2.60;;;9.70;99.90;;;;;;5069989;28;20436;-79
2023/04/26 10:39:37;;;;;;;8.05;2.70;;;;;;;;;;5056135;28;20491;-79
2023/04/26 10:42:22;;;;;;;8.88;2.88;;;;;;;;;;5072879;28;20424;-78
2023/04/26 10:44:49;;;;;;;7.20;2.80;;;;;;;;;;5088991;28;20444;-79
2023/04/26 10:47:30;;;;;;;6.65;2.50;;;9.70;99.90;;;;;;5088010;28;20492;-79
2023/04/26 10:50:04;;;;;;;4.80;2.10;;;;;;;;;;5096741;28;20420;-78
2023/04/26 10:52:30;;;;;;;9.27;2.47;;;;;;;;;;5071653;28;20428;-78
2023/04/26 10:55:01;;;;;;;7.00;2.50;;;;;;;;;;5094704;28;20417;-79
2023/04/26 10:57:47;;;;;;;7.90;2.60;;;10.10;99.90;;;;;;5089215;28;21045;-78
2023/04/26 11:00:18;;;;;;;7.78;2.80;;;;;;;;;;5085434;28;20421;-79
2023/04/26 11:02:56;;;;;;;7.53;2.58;;;;;;;;;;5071966;28;20456;-78
2023/04/26 11:05:41;;;;;;;9.20;2.90;;;;;;;;;;5070481;28;20447;-79
2023/04/26 11:08:18;;;;;;;6.93;2.50;;;9.60;99.90;;;;;;5073344;28;20777;-78
2023/04/26 11:11:02;;;;;;;7.22;2.75;;;;;;;;;;5086920;28;20926;-77
2023/04/26 11:13:32;;;;;;;8.40;3.23;;;;;;;;;;5069227;28;20461;-78
2023/04/26 11:16:02;;;;;;;9.68;3.00;;;;;;;;;;5083677;28;20422;-78
2023/04/26 11:18:29;;;;;;;9.27;3.63;;;;;;;;;;5068715;28;20418;-78
2023/04/26 11:20:56;;;;;;;7.20;3.22;;;;;;;;;;5068859;28;20422;-78
2023/04/26 11:23:22;;;;;;;9.05;3.80;;;;;;;;;;5083647;28;20768;-79
2023/04/26 11:25:48;;;;;;;7.95;3.50;;;;;;;;;;5088223;28;20421;-78
2023/04/26 11:28:15;;;;;;;8.68;3.42;;;;;;;;;;5055182;28;20811;-80
2023/04/26 11:30:42;;;;;;;8.30;3.40;;;8.30;99.90;;;;;;5059087;28;20460;-79
2023/04/26 11:33:17;;;;;;;6.57;3.53;;;;;;;;;;5068615;28;20457;-79
2023/04/26 11:35:43;;;;;;;7.28;3.20;;;;;;;;;;5092505;28;20503;-77
2023/04/26 11:38:09;;;;;;;8.55;3.22;;;;;;;;;;5066395;28;20857;-78
2023/04/26 11:40:36;;;;;;;6.55;3.17;;;;;;;;;;5086831;28;20424;-79
2023/04/26 11:43:05;;;;;;;6.90;2.80;;;;;;;;;;5069111;28;20485;-79
2023/04/26 11:45:32;;;;;;;7.97;3.30;;;;;;;;;;5090720;28;20919;-80
2023/04/26 11:47:59;;;;;;;8.18;3.08;;;;;;;;;;5066921;28;20425;-79
2023/04/26 11:50:26;;;;;;;7.93;3.10;;;;;;;;;;5069546;28;20583;-80
2023/04/26 11:52:56;;;;;;;8.73;3.00;;;;;;;;;;5078641;28;20445;-80
2023/04/26 11:55:31;;;;;;;8.70;2.88;;;;;;;;;;5090334;28;20573;-80
2023/04/26 11:57:57;;;;;;;6.87;2.83;;;;;;;;;;5079898;28;20435;-80
2023/04/26 12:00:23;;;;;;;7.18;3.30;;;;;;;;;;5084167;28;20479;-80
2023/04/26 12:02:51;;;;;;;8.10;3.65;;;;;;;;;;5069789;28;20921;-79
2023/04/26 12:05:30;;;;;;;6.60;3.28;;;8.70;99.90;;;;;;5080599;28;20947;-80
2023/04/26 12:07:58;;;;;;;8.25;3.25;;;;;;;;;;5067515;28;20497;-81
2023/04/26 12:10:28;;;;;;;7.50;3.40;;;;;;;;;;5081466;28;20405;-81
2023/04/26 12:12:57;;;;;;;11.85;3.50;;;8.40;99.90;;;;;;5056721;28;20425;-82
2023/04/26 12:15:24;;;;;;;8.55;3.50;;;;;;;;;;5090242;28;20453;-81
2023/04/26 12:17:54;;;;;;;10.35;3.65;;;;;;;;;;5071288;28;20920;-81
2023/04/26 12:20:26;;;;;;;7.47;3.23;;;;;;;;;;5078045;28;20424;-80
2023/04/26 12:23:02;;;;;;;9.93;3.40;;;;;;;;;;5091569;28;20428;-81
2023/04/26 12:25:28;;;;;;;9.63;3.10;;;;;;;;;;5079488;28;20412;-81
2023/04/26 12:27:55;;;;;;;7.22;3.20;;;;;;;;;;5066685;28;20897;-80
2023/04/26 12:30:21;;;;;;;7.93;3.05;;;;;;;;;;5077039;28;20417;-81
2023/04/26 12:32:47;;;;;;;6.85;3.10;;;;;;;;;;5090560;28;20423;-81
2023/04/26 12:35:13;;;;;;;10.82;3.45;;;;;;;;;;5087192;28;20499;-82
2023/04/26 12:37:39;;;;;;;6.97;2.85;;;;;;;;;;5095114;28;20975;-81
2023/04/26 12:40:06;;;;;;;6.72;2.60;;;;;;;;;;5092564;28;20423;-81
2023/04/26 12:42:32;;;;;;;7.78;2.80;;;;;;;;;;5095172;28;20437;-81
2023/04/26 12:44:58;;;;;;;8.18;2.90;;;;;;;;;;5082931;28;20412;-82
2023/04/26 12:47:24;;;;;;;6.95;2.60;;;;;;;;;;5074691;28;20507;-82
2023/04/26 12:49:51;;;;;;;7.10;2.70;;;;;;;;;;5085670;28;20412;-81
2023/04/26 12:52:17;;;;;;;6.78;2.70;;;;;;;;;;5085431;28;20496;-81
2023/04/26 12:54:43;;;;;;;7.13;2.50;;;;;;;;;;5090593;28;20418;-81
2023/04/26 12:57:10;;;;;;;6.90;2.40;;;;;;;;;;5079584;28;20431;-81
2023/04/26 12:59:36;;;;;;;5.90;2.53;;;;;;;;;;5068721;28;20939;-82
2023/04/26 13:02:02;;;;;;;7.63;2.42;;;;;;;;;;5065274;28;20815;-81
2023/04/26 13:04:28;;;;;;;7.05;2.75;;;;;;;;;;5089822;28;20484;-82
2023/04/26 13:06:55;;;;;;;7.57;2.80;;;;;;;;;;5044301;28;20450;-81
2023/04/26 13:09:21;;;;;;;8.52;2.78;;;;;;;;;;5069179;28;20960;-82
2023/04/26 13:11:47;;;;;;;5.20;2.50;;;;;;;;;;5076082;28;20420;-81
2023/04/26 13:14:13;;;;;;;6.27;2.70;;;;;;;;;;5077548;28;20431;-81
2023/04/26 13:16:42;;;;;;;9.60;2.90;;;;;;;;;;5094469;28;20415;-81
2023/04/26 13:19:09;;;;;;;7.07;2.70;;;;;;;;;;5086434;28;20429;-81
2023/04/26 13:21:36;;;;;;;6.13;2.50;;;;;;;;;;5063490;28;20415;-80
2023/04/26 13:24:02;;;;;;;5.60;2.63;;;;;;;;;;5087829;28;20437;-80
2023/04/26 13:26:29;;;;;;;6.38;2.10;;;;;;;;;;5053443;28;20496;-80
2023/04/26 13:28:55;;;;;;;5.53;2.25;;;;;;;;;;5109157;27;20507;-81
2023/04/26 13:31:21;;;;;;;8.00;2.60;;;;;;;;;;5097043;28;20425;-81
2023/04/26 13:33:48;;;;;;;6.85;2.70;;;;;;;;;;5079009;28;20421;-80
2023/04/26 13:36:14;;;;;;;6.40;2.60;;;;;;;;;;5083048;28;20518;-81
2023/04/26 13:38:41;;;;;;;7.80;2.75;;;;;;;;;;5075031;28;20423;-80
2023/04/26 13:41:07;;;;;;;8.68;2.50;;;;;;;;;;5081066;28;20454;-81
2023/04/26 13:43:33;;;;;;;8.27;2.65;;;;;;;;;;5078420;28;20413;-80
2023/04/26 13:46:00;;;;;;;4.82;2.20;;;;;;;;;;5070563;28;20418;-81
2023/04/26 13:48:26;;;;;;;7.45;2.50;;;;;;;;;;5080034;28;20415;-81
2023/04/26 13:50:52;;;;;;;5.05;2.45;;;;;;;;;;5069025;28;20417;-81
2023/04/26 13:53:18;;;;;;;6.63;2.60;;;;;;;;;;5070830;28;20428;-80
2023/04/26 13:55:45;;;;;;;7.45;2.90;;;;;;;;;;5112690;27;20899;-80
2023/04/26 13:58:11;;;;;;;7.10;2.47;;;;;;;;;;5080971;28;20938;-82
2023/04/26 14:00:37;;;;;;;6.88;2.80;;;;;;;;;;5065242;28;20430;-80
2023/04/26 14:03:03;;;;;;;7.35;2.55;;;;;;;;;;5064878;28;20433;-79
2023/04/26 14:05:29;;;;;;;8.57;2.70;;;;;;;;;;5097356;28;20874;-80
2023/04/26 14:07:56;;;;;;;7.13;3.00;;;;;;;;;;5081517;28;20463;-81
2023/04/26 14:10:22;;;;;;;9.00;2.80;;;;;;;;;;5084617;28;20414;-81
2023/04/26 14:12:48;;;;;;;5.93;2.50;;;;;;;;;;5048195;28;20410;-82
2023/04/26 14:15:14;;;;;;;10.23;2.50;;;;;;;;;;5100505;28;20424;-81
2023/04/26 14:17:40;;;;;;;5.88;2.60;;;;;;;;;;5088329;28;20434;-80
2023/04/26 14:20:09;;;;;;;7.20;3.10;;;;;;;;;;5077092;28;20923;-80
2023/04/26 14:22:35;;;;;;;9.88;3.30;;;;;;;;;;5067994;28;20432;-81
2023/04/26 14:25:02;;;;;;;7.83;3.27;;;;;;;;;;5077928;28;20453;-81
2023/04/26 14:27:28;;;;;;;6.23;2.77;;;;;;;;;;5058141;28;20421;-81
2023/04/26 14:29:54;;;;;;;6.95;3.15;;;;;;;;;;5066924;28;20428;-82
2023/04/26 14:32:20;;;;;;;5.82;2.50;;;;;;;;;;5075205;28;20426;-82
2023/04/26 14:34:46;;;;;;;5.53;2.60;;;;;;;;;;5083831;28;20456;-81
2023/04/26 14:37:12;;;;;;;6.15;2.70;;;;;;;;;;5064547;28;20448;-80